This is the latest recevied weather packets stored in our database for station/object AD8IZ-13. If no packets are shown the sender has not sent any weather packets the latest 10 day(s).
| Time | Temp. | Humidity | Pressure | Rain* | Wind** | Luminosity | Snow |
|---|---|---|---|---|---|---|---|
| 1777757718 | 8.33° C | 57% | 1016.3 hPa | 0 mm | - | 191 W/m² | - |
| 1777757118 | 8.33° C | 59% | 1016.3 hPa | 0 mm | - | 148 W/m² | - |
| 1777756518 | 8.33° C | 58% | 1016.2 hPa | 0 mm | - | 196 W/m² | - |
| 1777755918 | 8.33° C | 60% | 1016.2 hPa | 0 mm | - | 261 W/m² | - |
| 1777755319 | 8.33° C | 62% | 1016.2 hPa | 0 mm | - | 199 W/m² | - |
| 1777754719 | 8.89° C | 61% | 1016.2 hPa | 0 mm | - | 222 W/m² | - |
| 1777754118 | 8.89° C | 60% | 1016.2 hPa | 0 mm | - | 264 W/m² | - |
| 1777753519 | 8.33° C | 62% | 1016.3 hPa | 0 mm | - | 390 W/m² | - |
| 1777752919 | 8.33° C | 62% | 1016.4 hPa | 0 mm | - | 207 W/m² | - |
| 1777752319 | 8.89° C | 62% | 1016.3 hPa | 0 mm | - | 135 W/m² | - |
| 1777751719 | 8.89° C | 57% | 1016.2 hPa | 0 mm | - | 257 W/m² | - |
| 1777751116 | 9.44° C | 56% | 1016.3 hPa | 0 mm | - | 258 W/m² | - |
| 1777750516 | 8.89° C | 57% | 1016.4 hPa | 0 mm | - | 304 W/m² | - |
| 1777749920 | 8.89° C | 58% | 1016.5 hPa | 0 mm | - | 349 W/m² | - |
| 1777749320 | 8.89° C | 58% | 1016.6 hPa | 0 mm | - | 236 W/m² | - |
| 1777748720 | 9.44° C | 57% | 1016.5 hPa | 0 mm | - | 210 W/m² | - |
| 1777748119 | 10.56° C | 53% | 1016.4 hPa | 0 mm | - | 284 W/m² | - |
| 1777747517 | 10° C | 53% | 1016.4 hPa | 0 mm | - | 588 W/m² | - |
| 1777746918 | 9.44° C | 57% | 1016.6 hPa | 0 mm | - | 769 W/m² | - |
| 1777746317 | 8.89° C | 59% | 1016.7 hPa | 0 mm | - | 445 W/m² | - |
| 1777745719 | 8.89° C | 58% | 1016.7 hPa | 0 mm | - | 676 W/m² | - |
| 1777745118 | 8.89° C | 58% | 1016.8 hPa | 0 mm | - | 491 W/m² | - |
| 1777744520 | 9.44° C | 57% | 1016.7 hPa | 0 mm | - | 225 W/m² | - |
| 1777743918 | 9.44° C | 57% | 1016.7 hPa | 0 mm | - | 882 W/m² | - |
| 1777743321 | 9.44° C | 54% | 1016.8 hPa | 0 mm | - | 561 W/m² | - |
* Rain latest hour (hover to see other rain measurements)
** Current wind speed in m/s (hover to see current wind gust speed)